sensor_id;sensor_type;location;lat;lon;timestamp;P1;durP1;ratioP1;P2;durP2;ratioP2
75246;SDS011;63844;50.042;19.224;2024-03-25T00:00:59;3.70;;;2.30;;
75246;SDS011;63844;50.042;19.224;2024-03-25T00:02:48;5.10;;;2.70;;
75246;SDS011;63844;50.042;19.224;2024-03-25T00:04:24;5.10;;;2.50;;
75246;SDS011;63844;50.042;19.224;2024-03-25T00:06:00;7.20;;;3.80;;
75246;SDS011;63844;50.042;19.224;2024-03-25T00:07:37;5.10;;;3.10;;
75246;SDS011;63844;50.042;19.224;2024-03-25T00:09:14;5.00;;;3.10;;
75246;SDS011;63844;50.042;19.224;2024-03-25T00:10:50;5.40;;;2.60;;
75246;SDS011;63844;50.042;19.224;2024-03-25T00:12:27;4.50;;;2.30;;
75246;SDS011;63844;50.042;19.224;2024-03-25T00:14:04;4.50;;;2.50;;
75246;SDS011;63844;50.042;19.224;2024-03-25T00:15:40;5.00;;;2.30;;
75246;SDS011;63844;50.042;19.224;2024-03-25T00:17:17;4.40;;;2.00;;
75246;SDS011;63844;50.042;19.224;2024-03-25T00:18:55;4.10;;;2.30;;
75246;SDS011;63844;50.042;19.224;2024-03-25T00:20:32;4.70;;;2.20;;
75246;SDS011;63844;50.042;19.224;2024-03-25T00:22:08;3.80;;;2.40;;
75246;SDS011;63844;50.042;19.224;2024-03-25T00:23:45;5.70;;;2.50;;
75246;SDS011;63844;50.042;19.224;2024-03-25T00:25:21;3.60;;;2.10;;
75246;SDS011;63844;50.042;19.224;2024-03-25T00:26:58;5.10;;;2.60;;
75246;SDS011;63844;50.042;19.224;2024-03-25T00:28:34;4.50;;;2.40;;
75246;SDS011;63844;50.042;19.224;2024-03-25T00:30:11;5.70;;;2.50;;
75246;SDS011;63844;50.042;19.224;2024-03-25T00:31:48;3.80;;;1.90;;
75246;SDS011;63844;50.042;19.224;2024-03-25T00:33:24;4.70;;;2.10;;
75246;SDS011;63844;50.042;19.224;2024-03-25T00:35:01;4.20;;;2.10;;
75246;SDS011;63844;50.042;19.224;2024-03-25T00:36:37;5.70;;;2.50;;
75246;SDS011;63844;50.042;19.224;2024-03-25T00:38:14;3.20;;;1.70;;
75246;SDS011;63844;50.042;19.224;2024-03-25T00:39:50;4.70;;;2.20;;
75246;SDS011;63844;50.042;19.224;2024-03-25T00:41:27;5.30;;;2.20;;
75246;SDS011;63844;50.042;19.224;2024-03-25T00:44:39;5.70;;;2.20;;
75246;SDS011;63844;50.042;19.224;2024-03-25T00:46:16;6.80;;;3.20;;
75246;SDS011;63844;50.042;19.224;2024-03-25T00:47:52;4.40;;;2.90;;
75246;SDS011;63844;50.042;19.224;2024-03-25T00:49:28;4.20;;;2.10;;
75246;SDS011;63844;50.042;19.224;2024-03-25T00:51:05;5.30;;;2.10;;
75246;SDS011;63844;50.042;19.224;2024-03-25T00:52:42;4.70;;;2.30;;
75246;SDS011;63844;50.042;19.224;2024-03-25T00:54:18;4.30;;;1.50;;
75246;SDS011;63844;50.042;19.224;2024-03-25T00:55:54;4.50;;;1.60;;
75246;SDS011;63844;50.042;19.224;2024-03-25T00:57:31;2.60;;;1.50;;
75246;SDS011;63844;50.042;19.224;2024-03-25T00:59:08;2.30;;;1.30;;
75246;SDS011;63844;50.042;19.224;2024-03-25T01:00:45;2.30;;;1.40;;
75246;SDS011;63844;50.042;19.224;2024-03-25T01:02:21;2.40;;;1.30;;
75246;SDS011;63844;50.042;19.224;2024-03-25T01:03:58;3.00;;;1.40;;
75246;SDS011;63844;50.042;19.224;2024-03-25T01:05:35;3.40;;;1.30;;
75246;SDS011;63844;50.042;19.224;2024-03-25T01:07:11;3.10;;;1.30;;
75246;SDS011;63844;50.042;19.224;2024-03-25T01:08:48;3.10;;;1.20;;
75246;SDS011;63844;50.042;19.224;2024-03-25T01:10:24;3.00;;;1.40;;
75246;SDS011;63844;50.042;19.224;2024-03-25T01:12:02;2.40;;;1.40;;
75246;SDS011;63844;50.042;19.224;2024-03-25T01:13:39;2.30;;;1.10;;
75246;SDS011;63844;50.042;19.224;2024-03-25T01:15:17;2.40;;;1.20;;
75246;SDS011;63844;50.042;19.224;2024-03-25T01:16:53;2.60;;;1.20;;
75246;SDS011;63844;50.042;19.224;2024-03-25T01:18:30;3.10;;;1.50;;
75246;SDS011;63844;50.042;19.224;2024-03-25T01:20:06;3.20;;;1.80;;
75246;SDS011;63844;50.042;19.224;2024-03-25T01:21:45;2.70;;;1.40;;
75246;SDS011;63844;50.042;19.224;2024-03-25T01:23:21;2.80;;;1.40;;
75246;SDS011;63844;50.042;19.224;2024-03-25T01:24:57;3.20;;;1.30;;
75246;SDS011;63844;50.042;19.224;2024-03-25T01:26:40;2.30;;;1.20;;
75246;SDS011;63844;50.042;19.224;2024-03-25T01:28:17;3.50;;;1.40;;
75246;SDS011;63844;50.042;19.224;2024-03-25T01:29:53;4.40;;;2.20;;
75246;SDS011;63844;50.042;19.224;2024-03-25T01:31:30;3.80;;;1.90;;
75246;SDS011;63844;50.042;19.224;2024-03-25T01:33:06;2.90;;;1.60;;
75246;SDS011;63844;50.042;19.224;2024-03-25T01:34:42;2.90;;;1.50;;
75246;SDS011;63844;50.042;19.224;2024-03-25T01:36:19;3.00;;;1.60;;
75246;SDS011;63844;50.042;19.224;2024-03-25T01:37:55;3.60;;;1.30;;
75246;SDS011;63844;50.042;19.224;2024-03-25T01:39:31;3.10;;;1.50;;
75246;SDS011;63844;50.042;19.224;2024-03-25T01:41:08;2.60;;;1.60;;
75246;SDS011;63844;50.042;19.224;2024-03-25T01:42:59;3.90;;;1.80;;
75246;SDS011;63844;50.042;19.224;2024-03-25T01:44:36;3.00;;;1.90;;
75246;SDS011;63844;50.042;19.224;2024-03-25T01:46:14;3.60;;;2.10;;
75246;SDS011;63844;50.042;19.224;2024-03-25T01:47:54;3.30;;;2.20;;
75246;SDS011;63844;50.042;19.224;2024-03-25T01:49:32;2.30;;;1.30;;
75246;SDS011;63844;50.042;19.224;2024-03-25T01:51:08;3.80;;;2.00;;
75246;SDS011;63844;50.042;19.224;2024-03-25T01:52:46;3.30;;;1.80;;
75246;SDS011;63844;50.042;19.224;2024-03-25T01:54:23;2.10;;;1.10;;
75246;SDS011;63844;50.042;19.224;2024-03-25T01:55:59;3.30;;;2.00;;
75246;SDS011;63844;50.042;19.224;2024-03-25T01:57:36;4.60;;;1.20;;
75246;SDS011;63844;50.042;19.224;2024-03-25T01:59:15;2.60;;;1.10;;
75246;SDS011;63844;50.042;19.224;2024-03-25T02:00:53;2.50;;;1.00;;
75246;SDS011;63844;50.042;19.224;2024-03-25T02:02:31;2.70;;;1.50;;
75246;SDS011;63844;50.042;19.224;2024-03-25T02:04:11;3.70;;;1.30;;
75246;SDS011;63844;50.042;19.224;2024-03-25T02:05:50;2.90;;;1.10;;
75246;SDS011;63844;50.042;19.224;2024-03-25T02:07:29;2.00;;;1.00;;
75246;SDS011;63844;50.042;19.224;2024-03-25T02:09:07;3.90;;;1.30;;
75246;SDS011;63844;50.042;19.224;2024-03-25T02:10:45;3.00;;;1.50;;
75246;SDS011;63844;50.042;19.224;2024-03-25T02:12:22;3.50;;;1.20;;
75246;SDS011;63844;50.042;19.224;2024-03-25T02:14:00;2.10;;;1.20;;
75246;SDS011;63844;50.042;19.224;2024-03-25T02:15:37;1.70;;;0.90;;
75246;SDS011;63844;50.042;19.224;2024-03-25T02:17:13;3.50;;;1.10;;
75246;SDS011;63844;50.042;19.224;2024-03-25T02:18:50;2.60;;;1.50;;
75246;SDS011;63844;50.042;19.224;2024-03-25T02:20:27;2.30;;;1.20;;
75246;SDS011;63844;50.042;19.224;2024-03-25T02:22:03;3.40;;;1.30;;
75246;SDS011;63844;50.042;19.224;2024-03-25T02:23:40;2.90;;;1.30;;
75246;SDS011;63844;50.042;19.224;2024-03-25T02:25:20;2.00;;;1.20;;
75246;SDS011;63844;50.042;19.224;2024-03-25T02:26:58;3.50;;;1.60;;
75246;SDS011;63844;50.042;19.224;2024-03-25T02:28:35;2.50;;;1.10;;
75246;SDS011;63844;50.042;19.224;2024-03-25T02:30:11;3.20;;;1.20;;
75246;SDS011;63844;50.042;19.224;2024-03-25T02:31:50;2.70;;;1.30;;
75246;SDS011;63844;50.042;19.224;2024-03-25T02:33:29;3.50;;;1.40;;
75246;SDS011;63844;50.042;19.224;2024-03-25T02:35:06;2.90;;;1.20;;
75246;SDS011;63844;50.042;19.224;2024-03-25T02:36:46;3.30;;;1.30;;
75246;SDS011;63844;50.042;19.224;2024-03-25T02:38:22;1.90;;;1.00;;
75246;SDS011;63844;50.042;19.224;2024-03-25T02:39:59;1.90;;;0.90;;
75246;SDS011;63844;50.042;19.224;2024-03-25T02:41:37;2.20;;;1.20;;
75246;SDS011;63844;50.042;19.224;2024-03-25T02:43:13;3.30;;;1.10;;
75246;SDS011;63844;50.042;19.224;2024-03-25T02:44:50;2.70;;;1.30;;
75246;SDS011;63844;50.042;19.224;2024-03-25T02:46:27;2.10;;;1.30;;
75246;SDS011;63844;50.042;19.224;2024-03-25T02:48:03;2.90;;;1.20;;
75246;SDS011;63844;50.042;19.224;2024-03-25T02:49:40;2.30;;;1.30;;
75246;SDS011;63844;50.042;19.224;2024-03-25T02:51:16;2.20;;;1.10;;
75246;SDS011;63844;50.042;19.224;2024-03-25T02:52:53;3.00;;;1.20;;
75246;SDS011;63844;50.042;19.224;2024-03-25T02:54:29;2.00;;;1.10;;
75246;SDS011;63844;50.042;19.224;2024-03-25T02:56:06;2.40;;;1.10;;
75246;SDS011;63844;50.042;19.224;2024-03-25T02:57:42;3.00;;;1.40;;
75246;SDS011;63844;50.042;19.224;2024-03-25T02:59:18;4.20;;;1.40;;
75246;SDS011;63844;50.042;19.224;2024-03-25T03:00:55;2.20;;;1.10;;
75246;SDS011;63844;50.042;19.224;2024-03-25T03:02:31;2.80;;;1.10;;
75246;SDS011;63844;50.042;19.224;2024-03-25T03:04:08;2.40;;;1.30;;
75246;SDS011;63844;50.042;19.224;2024-03-25T03:05:44;2.80;;;1.30;;
75246;SDS011;63844;50.042;19.224;2024-03-25T03:07:20;1.70;;;1.10;;
75246;SDS011;63844;50.042;19.224;2024-03-25T03:08:57;2.30;;;1.30;;
75246;SDS011;63844;50.042;19.224;2024-03-25T03:10:33;2.40;;;1.00;;
75246;SDS011;63844;50.042;19.224;2024-03-25T03:12:10;2.30;;;1.10;;
75246;SDS011;63844;50.042;19.224;2024-03-25T03:13:46;2.80;;;1.30;;
75246;SDS011;63844;50.042;19.224;2024-03-25T03:15:22;2.10;;;1.20;;
75246;SDS011;63844;50.042;19.224;2024-03-25T03:16:59;1.90;;;1.20;;
75246;SDS011;63844;50.042;19.224;2024-03-25T03:18:35;1.70;;;1.20;;
75246;SDS011;63844;50.042;19.224;2024-03-25T03:20:11;2.00;;;1.30;;
75246;SDS011;63844;50.042;19.224;2024-03-25T03:21:48;2.10;;;1.20;;
75246;SDS011;63844;50.042;19.224;2024-03-25T03:23:24;3.40;;;1.40;;
75246;SDS011;63844;50.042;19.224;2024-03-25T03:25:00;2.50;;;1.50;;
75246;SDS011;63844;50.042;19.224;2024-03-25T03:26:37;3.00;;;1.40;;
75246;SDS011;63844;50.042;19.224;2024-03-25T03:28:13;3.00;;;1.70;;
75246;SDS011;63844;50.042;19.224;2024-03-25T03:29:51;4.50;;;1.70;;
75246;SDS011;63844;50.042;19.224;2024-03-25T03:31:27;2.50;;;1.50;;
75246;SDS011;63844;50.042;19.224;2024-03-25T03:33:03;3.40;;;1.50;;
75246;SDS011;63844;50.042;19.224;2024-03-25T03:34:40;2.80;;;1.60;;
75246;SDS011;63844;50.042;19.224;2024-03-25T03:36:17;3.30;;;1.40;;
75246;SDS011;63844;50.042;19.224;2024-03-25T03:37:56;4.70;;;1.50;;
75246;SDS011;63844;50.042;19.224;2024-03-25T03:39:32;3.90;;;1.90;;
75246;SDS011;63844;50.042;19.224;2024-03-25T03:41:08;3.00;;;1.60;;
75246;SDS011;63844;50.042;19.224;2024-03-25T03:42:45;2.10;;;1.60;;
75246;SDS011;63844;50.042;19.224;2024-03-25T03:44:21;3.10;;;1.30;;
75246;SDS011;63844;50.042;19.224;2024-03-25T03:45:57;2.80;;;1.50;;
75246;SDS011;63844;50.042;19.224;2024-03-25T03:47:34;4.90;;;1.90;;
75246;SDS011;63844;50.042;19.224;2024-03-25T03:49:10;3.00;;;1.90;;
75246;SDS011;63844;50.042;19.224;2024-03-25T03:50:46;3.70;;;1.40;;
75246;SDS011;63844;50.042;19.224;2024-03-25T03:52:23;2.50;;;1.40;;
75246;SDS011;63844;50.042;19.224;2024-03-25T03:53:59;3.40;;;1.90;;
75246;SDS011;63844;50.042;19.224;2024-03-25T03:55:36;3.40;;;1.70;;
75246;SDS011;63844;50.042;19.224;2024-03-25T03:57:12;3.60;;;2.00;;
75246;SDS011;63844;50.042;19.224;2024-03-25T03:58:49;5.20;;;1.70;;
75246;SDS011;63844;50.042;19.224;2024-03-25T04:00:25;2.70;;;1.40;;
75246;SDS011;63844;50.042;19.224;2024-03-25T04:02:01;2.90;;;1.40;;
75246;SDS011;63844;50.042;19.224;2024-03-25T04:03:39;3.00;;;1.80;;
75246;SDS011;63844;50.042;19.224;2024-03-25T04:05:15;1.60;;;0.90;;
75246;SDS011;63844;50.042;19.224;2024-03-25T04:06:52;2.40;;;1.40;;
75246;SDS011;63844;50.042;19.224;2024-03-25T04:08:29;2.60;;;1.60;;
75246;SDS011;63844;50.042;19.224;2024-03-25T04:10:05;1.90;;;1.40;;
75246;SDS011;63844;50.042;19.224;2024-03-25T04:11:42;3.40;;;1.50;;
75246;SDS011;63844;50.042;19.224;2024-03-25T04:13:18;3.00;;;1.60;;
75246;SDS011;63844;50.042;19.224;2024-03-25T04:14:56;2.50;;;1.70;;
75246;SDS011;63844;50.042;19.224;2024-03-25T04:16:32;3.10;;;1.60;;
75246;SDS011;63844;50.042;19.224;2024-03-25T04:18:09;2.50;;;1.50;;
75246;SDS011;63844;50.042;19.224;2024-03-25T04:19:45;2.40;;;1.30;;
75246;SDS011;63844;50.042;19.224;2024-03-25T04:21:22;3.30;;;1.60;;
75246;SDS011;63844;50.042;19.224;2024-03-25T04:22:58;3.50;;;1.80;;
75246;SDS011;63844;50.042;19.224;2024-03-25T04:24:35;2.40;;;1.10;;
75246;SDS011;63844;50.042;19.224;2024-03-25T04:26:12;3.40;;;1.60;;
75246;SDS011;63844;50.042;19.224;2024-03-25T04:27:48;3.10;;;1.60;;
75246;SDS011;63844;50.042;19.224;2024-03-25T04:29:25;4.50;;;2.00;;
75246;SDS011;63844;50.042;19.224;2024-03-25T04:31:01;3.80;;;1.90;;
75246;SDS011;63844;50.042;19.224;2024-03-25T04:32:38;5.10;;;1.80;;
75246;SDS011;63844;50.042;19.224;2024-03-25T04:34:18;2.60;;;1.60;;
75246;SDS011;63844;50.042;19.224;2024-03-25T04:35:56;2.60;;;1.70;;
75246;SDS011;63844;50.042;19.224;2024-03-25T04:37:36;5.80;;;2.10;;
75246;SDS011;63844;50.042;19.224;2024-03-25T04:39:12;3.10;;;2.10;;
75246;SDS011;63844;50.042;19.224;2024-03-25T04:40:48;3.20;;;2.10;;
75246;SDS011;63844;50.042;19.224;2024-03-25T04:42:26;3.50;;;2.10;;
75246;SDS011;63844;50.042;19.224;2024-03-25T04:44:02;3.90;;;2.20;;
75246;SDS011;63844;50.042;19.224;2024-03-25T04:45:39;4.40;;;2.20;;
75246;SDS011;63844;50.042;19.224;2024-03-25T04:47:15;4.80;;;2.40;;
75246;SDS011;63844;50.042;19.224;2024-03-25T04:48:52;3.10;;;2.00;;
75246;SDS011;63844;50.042;19.224;2024-03-25T04:50:30;3.00;;;2.20;;
75246;SDS011;63844;50.042;19.224;2024-03-25T04:52:07;3.30;;;1.70;;
75246;SDS011;63844;50.042;19.224;2024-03-25T04:53:43;3.10;;;2.10;;
75246;SDS011;63844;50.042;19.224;2024-03-25T04:55:20;4.00;;;2.10;;
75246;SDS011;63844;50.042;19.224;2024-03-25T04:56:56;3.80;;;2.20;;
75246;SDS011;63844;50.042;19.224;2024-03-25T04:58:32;4.10;;;2.10;;
75246;SDS011;63844;50.042;19.224;2024-03-25T05:00:09;4.80;;;2.10;;
75246;SDS011;63844;50.042;19.224;2024-03-25T05:01:47;4.40;;;2.30;;
75246;SDS011;63844;50.042;19.224;2024-03-25T05:03:23;3.10;;;1.60;;
75246;SDS011;63844;50.042;19.224;2024-03-25T05:05:00;2.40;;;1.50;;
75246;SDS011;63844;50.042;19.224;2024-03-25T05:06:36;4.00;;;2.00;;
75246;SDS011;63844;50.042;19.224;2024-03-25T05:08:13;2.80;;;1.70;;
75246;SDS011;63844;50.042;19.224;2024-03-25T05:09:49;3.00;;;1.80;;
75246;SDS011;63844;50.042;19.224;2024-03-25T05:11:27;3.30;;;1.90;;
75246;SDS011;63844;50.042;19.224;2024-03-25T05:13:03;4.20;;;2.10;;
75246;SDS011;63844;50.042;19.224;2024-03-25T05:14:40;3.80;;;2.10;;
75246;SDS011;63844;50.042;19.224;2024-03-25T05:16:16;3.80;;;2.00;;
75246;SDS011;63844;50.042;19.224;2024-03-25T05:17:53;4.70;;;2.50;;
75246;SDS011;63844;50.042;19.224;2024-03-25T05:19:29;3.60;;;2.00;;
75246;SDS011;63844;50.042;19.224;2024-03-25T05:21:05;4.50;;;2.30;;
75246;SDS011;63844;50.042;19.224;2024-03-25T05:22:42;3.70;;;2.40;;
75246;SDS011;63844;50.042;19.224;2024-03-25T05:24:18;3.70;;;2.50;;
75246;SDS011;63844;50.042;19.224;2024-03-25T05:25:54;4.20;;;2.20;;
75246;SDS011;63844;50.042;19.224;2024-03-25T05:27:31;7.00;;;2.90;;
75246;SDS011;63844;50.042;19.224;2024-03-25T05:29:07;4.40;;;2.80;;
75246;SDS011;63844;50.042;19.224;2024-03-25T05:30:44;4.70;;;2.60;;
75246;SDS011;63844;50.042;19.224;2024-03-25T05:32:21;4.00;;;2.30;;
75246;SDS011;63844;50.042;19.224;2024-03-25T05:33:57;5.40;;;3.00;;
75246;SDS011;63844;50.042;19.224;2024-03-25T05:35:36;3.80;;;2.30;;
75246;SDS011;63844;50.042;19.224;2024-03-25T05:37:12;5.60;;;2.20;;
75246;SDS011;63844;50.042;19.224;2024-03-25T05:38:49;3.70;;;2.00;;
75246;SDS011;63844;50.042;19.224;2024-03-25T05:40:25;3.70;;;2.50;;
75246;SDS011;63844;50.042;19.224;2024-03-25T05:42:02;7.20;;;3.40;;
75246;SDS011;63844;50.042;19.224;2024-03-25T05:43:38;4.60;;;3.10;;
75246;SDS011;63844;50.042;19.224;2024-03-25T05:45:15;6.40;;;3.60;;
75246;SDS011;63844;50.042;19.224;2024-03-25T05:46:51;5.90;;;3.20;;
75246;SDS011;63844;50.042;19.224;2024-03-25T05:48:28;6.40;;;3.60;;
75246;SDS011;63844;50.042;19.224;2024-03-25T05:50:06;4.10;;;2.40;;
75246;SDS011;63844;50.042;19.224;2024-03-25T05:51:44;4.40;;;2.60;;
75246;SDS011;63844;50.042;19.224;2024-03-25T05:53:20;4.50;;;2.30;;
75246;SDS011;63844;50.042;19.224;2024-03-25T05:54:56;3.50;;;2.10;;
75246;SDS011;63844;50.042;19.224;2024-03-25T05:56:33;5.30;;;2.30;;
75246;SDS011;63844;50.042;19.224;2024-03-25T05:58:10;4.30;;;2.40;;
75246;SDS011;63844;50.042;19.224;2024-03-25T05:59:46;5.70;;;2.10;;
75246;SDS011;63844;50.042;19.224;2024-03-25T06:01:23;3.40;;;2.10;;
75246;SDS011;63844;50.042;19.224;2024-03-25T06:02:59;4.50;;;2.70;;
75246;SDS011;63844;50.042;19.224;2024-03-25T06:04:35;6.00;;;3.10;;
75246;SDS011;63844;50.042;19.224;2024-03-25T06:06:12;6.60;;;3.10;;
75246;SDS011;63844;50.042;19.224;2024-03-25T06:07:48;5.10;;;2.90;;
75246;SDS011;63844;50.042;19.224;2024-03-25T06:09:24;5.20;;;3.00;;
75246;SDS011;63844;50.042;19.224;2024-03-25T06:11:01;4.90;;;2.90;;
75246;SDS011;63844;50.042;19.224;2024-03-25T06:12:37;4.80;;;3.00;;
75246;SDS011;63844;50.042;19.224;2024-03-25T06:14:14;4.20;;;2.40;;
75246;SDS011;63844;50.042;19.224;2024-03-25T06:15:50;5.40;;;2.90;;
75246;SDS011;63844;50.042;19.224;2024-03-25T06:17:27;6.60;;;3.30;;
75246;SDS011;63844;50.042;19.224;2024-03-25T06:19:03;4.80;;;2.60;;
75246;SDS011;63844;50.042;19.224;2024-03-25T06:20:39;4.10;;;2.80;;
75246;SDS011;63844;50.042;19.224;2024-03-25T06:22:16;7.30;;;3.10;;
75246;SDS011;63844;50.042;19.224;2024-03-25T06:23:53;4.50;;;2.40;;
75246;SDS011;63844;50.042;19.224;2024-03-25T06:25:29;3.60;;;2.40;;
75246;SDS011;63844;50.042;19.224;2024-03-25T06:27:06;5.10;;;2.40;;
75246;SDS011;63844;50.042;19.224;2024-03-25T06:28:42;3.80;;;1.80;;
75246;SDS011;63844;50.042;19.224;2024-03-25T06:30:19;4.00;;;2.10;;
75246;SDS011;63844;50.042;19.224;2024-03-25T06:32:14;4.00;;;1.80;;
75246;SDS011;63844;50.042;19.224;2024-03-25T06:34:09;4.60;;;2.00;;
75246;SDS011;63844;50.042;19.224;2024-03-25T06:35:54;4.70;;;2.30;;
75246;SDS011;63844;50.042;19.224;2024-03-25T06:37:31;4.20;;;2.60;;
75246;SDS011;63844;50.042;19.224;2024-03-25T06:39:07;4.20;;;2.50;;
75246;SDS011;63844;50.042;19.224;2024-03-25T06:40:44;5.30;;;2.60;;
75246;SDS011;63844;50.042;19.224;2024-03-25T06:42:22;4.50;;;2.70;;
75246;SDS011;63844;50.042;19.224;2024-03-25T06:43:58;4.90;;;2.60;;
75246;SDS011;63844;50.042;19.224;2024-03-25T06:45:34;6.00;;;2.80;;
75246;SDS011;63844;50.042;19.224;2024-03-25T06:47:11;5.80;;;3.40;;
75246;SDS011;63844;50.042;19.224;2024-03-25T06:48:47;4.70;;;2.80;;
75246;SDS011;63844;50.042;19.224;2024-03-25T06:50:24;4.70;;;2.70;;
75246;SDS011;63844;50.042;19.224;2024-03-25T06:52:00;5.80;;;2.90;;
75246;SDS011;63844;50.042;19.224;2024-03-25T06:53:37;5.00;;;3.00;;
75246;SDS011;63844;50.042;19.224;2024-03-25T06:55:13;4.80;;;2.90;;
75246;SDS011;63844;50.042;19.224;2024-03-25T06:56:49;6.90;;;3.60;;
75246;SDS011;63844;50.042;19.224;2024-03-25T06:58:26;7.00;;;3.70;;
75246;SDS011;63844;50.042;19.224;2024-03-25T07:00:04;6.90;;;3.70;;
75246;SDS011;63844;50.042;19.224;2024-03-25T07:01:46;5.90;;;3.60;;
75246;SDS011;63844;50.042;19.224;2024-03-25T07:03:23;8.00;;;3.50;;
75246;SDS011;63844;50.042;19.224;2024-03-25T07:04:59;4.90;;;3.10;;
75246;SDS011;63844;50.042;19.224;2024-03-25T07:06:36;4.30;;;2.90;;
75246;SDS011;63844;50.042;19.224;2024-03-25T07:08:12;6.90;;;3.10;;
75246;SDS011;63844;50.042;19.224;2024-03-25T07:09:49;4.70;;;2.90;;
75246;SDS011;63844;50.042;19.224;2024-03-25T07:11:26;4.80;;;2.90;;
75246;SDS011;63844;50.042;19.224;2024-03-25T07:13:02;5.50;;;3.20;;
75246;SDS011;63844;50.042;19.224;2024-03-25T07:14:38;4.70;;;2.60;;
75246;SDS011;63844;50.042;19.224;2024-03-25T07:16:15;5.90;;;3.00;;
75246;SDS011;63844;50.042;19.224;2024-03-25T07:17:51;5.40;;;2.80;;
75246;SDS011;63844;50.042;19.224;2024-03-25T07:19:27;4.90;;;3.10;;
75246;SDS011;63844;50.042;19.224;2024-03-25T07:21:04;4.50;;;2.50;;
75246;SDS011;63844;50.042;19.224;2024-03-25T07:22:40;3.50;;;2.00;;
75246;SDS011;63844;50.042;19.224;2024-03-25T07:24:16;3.50;;;2.10;;
75246;SDS011;63844;50.042;19.224;2024-03-25T07:25:53;3.20;;;2.30;;
75246;SDS011;63844;50.042;19.224;2024-03-25T07:27:29;3.80;;;2.20;;
75246;SDS011;63844;50.042;19.224;2024-03-25T07:29:05;2.70;;;1.80;;
75246;SDS011;63844;50.042;19.224;2024-03-25T07:30:42;4.10;;;2.20;;
75246;SDS011;63844;50.042;19.224;2024-03-25T07:32:18;3.10;;;2.00;;
75246;SDS011;63844;50.042;19.224;2024-03-25T07:33:54;5.10;;;2.00;;
75246;SDS011;63844;50.042;19.224;2024-03-25T07:35:31;3.10;;;1.70;;
75246;SDS011;63844;50.042;19.224;2024-03-25T07:37:07;2.90;;;2.20;;
75246;SDS011;63844;50.042;19.224;2024-03-25T07:38:44;2.80;;;2.00;;
75246;SDS011;63844;50.042;19.224;2024-03-25T07:40:20;3.00;;;2.00;;
75246;SDS011;63844;50.042;19.224;2024-03-25T07:41:58;3.40;;;2.10;;
75246;SDS011;63844;50.042;19.224;2024-03-25T07:43:35;4.20;;;1.90;;
75246;SDS011;63844;50.042;19.224;2024-03-25T07:45:11;3.40;;;2.00;;
75246;SDS011;63844;50.042;19.224;2024-03-25T07:46:48;3.40;;;2.10;;
75246;SDS011;63844;50.042;19.224;2024-03-25T07:48:24;3.70;;;1.90;;
75246;SDS011;63844;50.042;19.224;2024-03-25T07:50:01;3.70;;;2.40;;
75246;SDS011;63844;50.042;19.224;2024-03-25T07:51:38;3.10;;;2.10;;
75246;SDS011;63844;50.042;19.224;2024-03-25T07:53:15;2.50;;;1.60;;
75246;SDS011;63844;50.042;19.224;2024-03-25T07:54:52;2.60;;;1.70;;
75246;SDS011;63844;50.042;19.224;2024-03-25T07:56:28;3.00;;;1.70;;
75246;SDS011;63844;50.042;19.224;2024-03-25T07:58:05;2.50;;;1.20;;
75246;SDS011;63844;50.042;19.224;2024-03-25T07:59:41;4.50;;;1.90;;
75246;SDS011;63844;50.042;19.224;2024-03-25T08:01:17;2.90;;;2.10;;
75246;SDS011;63844;50.042;19.224;2024-03-25T08:02:54;3.60;;;1.50;;
75246;SDS011;63844;50.042;19.224;2024-03-25T08:04:30;3.30;;;1.90;;
75246;SDS011;63844;50.042;19.224;2024-03-25T08:06:06;5.00;;;2.40;;
75246;SDS011;63844;50.042;19.224;2024-03-25T08:07:43;4.40;;;2.30;;
75246;SDS011;63844;50.042;19.224;2024-03-25T08:09:19;3.20;;;2.10;;
75246;SDS011;63844;50.042;19.224;2024-03-25T08:10:56;3.50;;;2.20;;
75246;SDS011;63844;50.042;19.224;2024-03-25T08:12:32;3.80;;;2.80;;
75246;SDS011;63844;50.042;19.224;2024-03-25T08:14:09;4.50;;;2.70;;
75246;SDS011;63844;50.042;19.224;2024-03-25T08:15:46;6.00;;;2.40;;
75246;SDS011;63844;50.042;19.224;2024-03-25T08:17:22;4.10;;;2.40;;
75246;SDS011;63844;50.042;19.224;2024-03-25T08:18:58;4.70;;;2.70;;
75246;SDS011;63844;50.042;19.224;2024-03-25T08:20:35;6.20;;;3.20;;
75246;SDS011;63844;50.042;19.224;2024-03-25T08:22:12;5.90;;;2.40;;
75246;SDS011;63844;50.042;19.224;2024-03-25T08:23:48;3.90;;;2.30;;
75246;SDS011;63844;50.042;19.224;2024-03-25T08:25:24;2.90;;;2.10;;
75246;SDS011;63844;50.042;19.224;2024-03-25T08:27:01;3.20;;;1.80;;
75246;SDS011;63844;50.042;19.224;2024-03-25T08:28:39;4.80;;;2.50;;
75246;SDS011;63844;50.042;19.224;2024-03-25T08:30:15;4.90;;;2.20;;
75246;SDS011;63844;50.042;19.224;2024-03-25T08:31:51;4.00;;;2.40;;
75246;SDS011;63844;50.042;19.224;2024-03-25T08:33:28;3.80;;;2.50;;
75246;SDS011;63844;50.042;19.224;2024-03-25T08:35:04;4.20;;;2.50;;
75246;SDS011;63844;50.042;19.224;2024-03-25T08:36:41;4.40;;;1.70;;
75246;SDS011;63844;50.042;19.224;2024-03-25T08:38:18;3.30;;;1.90;;
75246;SDS011;63844;50.042;19.224;2024-03-25T08:39:54;3.40;;;1.90;;
75246;SDS011;63844;50.042;19.224;2024-03-25T08:41:30;4.60;;;2.50;;
75246;SDS011;63844;50.042;19.224;2024-03-25T08:43:07;4.30;;;2.70;;
75246;SDS011;63844;50.042;19.224;2024-03-25T08:44:43;4.20;;;2.30;;
75246;SDS011;63844;50.042;19.224;2024-03-25T08:46:19;3.00;;;2.10;;
75246;SDS011;63844;50.042;19.224;2024-03-25T08:47:56;3.80;;;1.90;;
75246;SDS011;63844;50.042;19.224;2024-03-25T08:49:32;4.30;;;1.90;;
75246;SDS011;63844;50.042;19.224;2024-03-25T08:51:08;2.60;;;2.10;;
75246;SDS011;63844;50.042;19.224;2024-03-25T08:52:45;4.40;;;2.40;;
75246;SDS011;63844;50.042;19.224;2024-03-25T08:54:21;4.40;;;2.40;;
75246;SDS011;63844;50.042;19.224;2024-03-25T08:55:57;4.80;;;2.40;;
75246;SDS011;63844;50.042;19.224;2024-03-25T08:57:34;4.80;;;2.50;;
75246;SDS011;63844;50.042;19.224;2024-03-25T08:59:11;6.90;;;3.40;;
75246;SDS011;63844;50.042;19.224;2024-03-25T09:00:47;3.40;;;2.10;;
75246;SDS011;63844;50.042;19.224;2024-03-25T09:02:23;4.90;;;2.70;;
75246;SDS011;63844;50.042;19.224;2024-03-25T09:04:00;6.80;;;3.00;;
75246;SDS011;63844;50.042;19.224;2024-03-25T09:05:36;4.90;;;3.40;;
75246;SDS011;63844;50.042;19.224;2024-03-25T09:07:15;4.10;;;2.70;;
75246;SDS011;63844;50.042;19.224;2024-03-25T09:08:51;5.40;;;2.30;;
75246;SDS011;63844;50.042;19.224;2024-03-25T09:12:43;7.30;;;2.50;;
75246;SDS011;63844;50.042;19.224;2024-03-25T09:14:19;5.20;;;2.80;;
75246;SDS011;63844;50.042;19.224;2024-03-25T09:15:55;6.30;;;3.30;;
75246;SDS011;63844;50.042;19.224;2024-03-25T09:17:32;5.50;;;3.10;;
75246;SDS011;63844;50.042;19.224;2024-03-25T09:19:08;6.50;;;4.00;;
75246;SDS011;63844;50.042;19.224;2024-03-25T09:20:45;6.10;;;3.30;;
75246;SDS011;63844;50.042;19.224;2024-03-25T09:22:21;6.00;;;3.40;;
75246;SDS011;63844;50.042;19.224;2024-03-25T09:23:57;5.60;;;3.10;;
75246;SDS011;63844;50.042;19.224;2024-03-25T09:25:34;3.60;;;2.40;;
75246;SDS011;63844;50.042;19.224;2024-03-25T09:27:10;3.50;;;2.00;;
75246;SDS011;63844;50.042;19.224;2024-03-25T09:28:46;3.70;;;2.20;;
75246;SDS011;63844;50.042;19.224;2024-03-25T09:30:23;3.30;;;2.30;;
75246;SDS011;63844;50.042;19.224;2024-03-25T09:31:59;4.20;;;2.20;;
75246;SDS011;63844;50.042;19.224;2024-03-25T09:33:35;3.80;;;2.30;;
75246;SDS011;63844;50.042;19.224;2024-03-25T09:35:12;4.50;;;2.50;;
75246;SDS011;63844;50.042;19.224;2024-03-25T09:36:48;5.10;;;3.10;;
75246;SDS011;63844;50.042;19.224;2024-03-25T09:38:25;4.40;;;3.10;;